createdAt,value
2022-11-22T00:01:20.824Z,1.06
2022-11-22T00:03:55.191Z,1.07
2022-11-22T00:06:27.225Z,1.05
2022-11-22T00:09:00.373Z,1.01
2022-11-22T00:11:33.970Z,1.00
2022-11-22T00:14:08.788Z,1.00
2022-11-22T00:16:40.809Z,1.01
2022-11-22T00:19:15.206Z,0.98
2022-11-22T00:21:49.534Z,0.98
2022-11-22T00:24:21.623Z,1.01
2022-11-22T00:26:53.648Z,1.03
2022-11-22T00:29:29.970Z,0.99
2022-11-22T00:32:02.043Z,0.96
2022-11-22T00:34:33.887Z,0.95
2022-11-22T00:37:13.588Z,0.92
2022-11-22T00:39:45.721Z,0.93
2022-11-22T00:42:20.613Z,0.91
2022-11-22T00:44:52.627Z,0.92
2022-11-22T00:47:25.371Z,0.89
2022-11-22T00:49:57.244Z,0.90
2022-11-22T00:52:29.396Z,0.92
2022-11-22T00:55:01.506Z,0.92
2022-11-22T00:57:33.640Z,0.95
2022-11-22T01:00:09.342Z,0.96
2022-11-22T01:02:41.337Z,0.95
2022-11-22T01:05:13.358Z,0.93
2022-11-22T01:07:45.430Z,1.01
2022-11-22T01:10:17.826Z,1.02
2022-11-22T01:12:52.068Z,1.03
2022-11-22T01:15:27.013Z,0.99
2022-11-22T01:17:59.004Z,1.01
2022-11-22T01:20:33.584Z,1.05
2022-11-22T01:23:05.629Z,1.05
2022-11-22T01:25:37.697Z,1.02
2022-11-22T01:28:09.751Z,1.05
2022-11-22T01:30:41.850Z,1.07
2022-11-22T01:33:14.064Z,1.07
2022-11-22T01:35:46.203Z,1.05
2022-11-22T01:41:04.085Z,1.08
2022-11-22T01:43:35.943Z,1.08
2022-11-22T01:46:10.971Z,1.06
2022-11-22T01:48:52.145Z,1.04
2022-11-22T01:51:28.583Z,1.03
2022-11-22T01:54:05.650Z,1.05
2022-11-22T01:56:39.923Z,1.04
2022-11-22T01:59:18.372Z,1.07
2022-11-22T02:01:50.835Z,1.09
2022-11-22T02:04:27.436Z,1.12
2022-11-22T02:07:07.043Z,1.12
2022-11-22T02:09:40.631Z,1.05
2022-11-22T02:12:13.811Z,1.07
2022-11-22T02:14:46.446Z,1.03
2022-11-22T02:17:18.274Z,1.06
2022-11-22T02:19:51.195Z,1.11
2022-11-22T02:22:32.327Z,1.14
2022-11-22T02:25:15.732Z,1.13
2022-11-22T02:27:51.173Z,1.09
2022-11-22T02:30:23.791Z,1.12
2022-11-22T02:32:55.770Z,1.11
2022-11-22T02:35:29.588Z,1.06
2022-11-22T02:38:04.236Z,1.05
2022-11-22T02:40:42.589Z,1.06
2022-11-22T02:43:43.936Z,1.07
2022-11-22T02:46:20.875Z,1.04
2022-11-22T02:48:53.312Z,1.15
2022-11-22T02:51:26.722Z,1.20
2022-11-22T02:53:58.791Z,1.26
2022-11-22T02:56:33.645Z,1.21
2022-11-22T02:59:05.904Z,1.17
2022-11-22T03:01:38.042Z,1.20
2022-11-22T03:04:10.063Z,1.24
2022-11-22T03:06:42.034Z,1.19
2022-11-22T03:09:13.934Z,1.10
2022-11-22T03:11:47.412Z,1.04
2022-11-22T03:14:22.554Z,1.07
2022-11-22T03:16:55.231Z,1.09
2022-11-22T03:19:27.699Z,1.00
2022-11-22T03:21:59.995Z,0.91
2022-11-22T03:24:35.768Z,0.86
2022-11-22T03:27:08.290Z,0.92
2022-11-22T03:29:41.441Z,1.01
2022-11-22T03:32:13.611Z,0.95
2022-11-22T03:34:45.506Z,0.99
2022-11-22T03:37:17.478Z,1.03
2022-11-22T03:39:51.585Z,1.01
2022-11-22T03:42:51.396Z,1.02
2022-11-22T03:45:25.839Z,1.10
2022-11-22T03:47:58.015Z,1.16
2022-11-22T03:50:30.428Z,1.19
2022-11-22T03:53:02.439Z,1.12
2022-11-22T03:55:34.865Z,1.05
2022-11-22T03:58:10.824Z,1.08
2022-11-22T04:00:45.006Z,1.06
2022-11-22T04:03:16.875Z,1.04
2022-11-22T04:05:49.023Z,0.96
2022-11-22T04:08:21.323Z,0.97
2022-11-22T04:10:53.711Z,0.95
2022-11-22T04:13:46.315Z,0.82
2022-11-22T04:16:18.332Z,0.81
2022-11-22T04:18:50.225Z,0.83
2022-11-22T04:21:37.641Z,0.84
2022-11-22T04:24:28.916Z,0.85
2022-11-22T04:27:02.333Z,0.90
2022-11-22T04:29:34.270Z,0.96
2022-11-22T04:32:24.210Z,1.02
2022-11-22T04:34:56.020Z,1.00
2022-11-22T04:37:27.841Z,0.99
2022-11-22T04:39:59.714Z,0.96
2022-11-22T04:42:54.286Z,1.00
2022-11-22T04:45:27.253Z,0.94
2022-11-22T04:48:09.090Z,0.95
2022-11-22T04:51:00.110Z,0.84
2022-11-22T04:53:32.929Z,0.71
2022-11-22T04:56:05.150Z,0.78
2022-11-22T04:58:38.630Z,0.78
2022-11-22T05:01:10.914Z,0.69
2022-11-22T05:03:43.103Z,0.76
2022-11-22T05:06:15.970Z,0.88
2022-11-22T05:08:53.320Z,0.97
2022-11-22T05:11:25.255Z,0.96
2022-11-22T05:13:57.154Z,1.00
2022-11-22T05:16:29.034Z,1.02
2022-11-22T05:19:01.136Z,1.02
2022-11-22T05:24:21.509Z,1.09
2022-11-22T05:26:53.467Z,1.12
2022-11-22T05:29:25.421Z,1.13
2022-11-22T05:31:57.279Z,1.04
2022-11-22T05:34:29.163Z,0.89
2022-11-22T05:37:04.216Z,0.89
2022-11-22T05:39:36.253Z,0.91
2022-11-22T05:42:08.142Z,0.92
2022-11-22T05:44:40.021Z,0.91
2022-11-22T05:47:11.885Z,0.85
2022-11-22T05:49:47.679Z,0.90
2022-11-22T05:52:19.503Z,0.91
2022-11-22T05:54:51.358Z,0.93
2022-11-22T05:57:23.704Z,0.96
2022-11-22T05:59:55.673Z,0.96
2022-11-22T06:02:27.957Z,0.91
2022-11-22T06:04:59.896Z,0.95
2022-11-22T06:07:32.469Z,0.92
2022-11-22T06:10:04.958Z,0.95
2022-11-22T06:12:36.917Z,0.98
2022-11-22T06:15:10.500Z,1.04
2022-11-22T06:17:42.421Z,1.08
2022-11-22T06:20:15.182Z,1.04
2022-11-22T06:22:49.406Z,1.11
2022-11-22T06:25:21.662Z,1.15
2022-11-22T06:27:53.902Z,1.21
2022-11-22T06:30:25.683Z,1.16
2022-11-22T06:32:57.917Z,1.17
2022-11-22T06:35:35.587Z,1.24
2022-11-22T06:38:09.908Z,1.26
2022-11-22T06:40:41.815Z,1.20
2022-11-22T06:43:13.766Z,1.10
2022-11-22T06:45:45.708Z,1.12
2022-11-22T06:48:17.671Z,1.17
2022-11-22T06:50:49.706Z,1.25
2022-11-22T06:53:45.699Z,1.24
2022-11-22T06:56:21.496Z,1.24
2022-11-22T06:58:54.388Z,1.14
2022-11-22T07:01:27.909Z,1.07
2022-11-22T07:04:04.940Z,1.09
2022-11-22T07:06:39.436Z,1.11
2022-11-22T07:09:12.846Z,1.23
2022-11-22T07:11:47.422Z,1.28
2022-11-22T07:14:19.305Z,1.36
2022-11-22T07:16:51.200Z,1.44
2022-11-22T07:19:23.021Z,1.52
2022-11-22T07:21:55.331Z,1.53
2022-11-22T07:24:27.672Z,1.49
2022-11-22T07:26:59.834Z,1.54
2022-11-22T07:29:32.083Z,1.49
2022-11-22T07:32:04.370Z,1.49
2022-11-22T07:34:36.249Z,1.59
2022-11-22T07:37:09.363Z,1.64
2022-11-22T07:39:41.864Z,1.66
2022-11-22T07:42:14.142Z,1.71
2022-11-22T07:44:46.414Z,1.76
2022-11-22T07:47:22.742Z,1.74
2022-11-22T07:49:55.083Z,1.73
2022-11-22T07:52:27.159Z,1.77
2022-11-22T07:54:59.140Z,1.80
2022-11-22T07:57:31.266Z,1.83
2022-11-22T08:00:04.691Z,1.84
2022-11-22T08:02:37.968Z,1.85
2022-11-22T08:05:11.209Z,1.70
2022-11-22T08:07:48.880Z,1.67
2022-11-22T08:10:22.330Z,1.68
2022-11-22T08:12:54.250Z,1.63
2022-11-22T08:15:26.077Z,1.60
2022-11-22T08:17:59.171Z,1.52
2022-11-22T08:20:31.107Z,1.46
2022-11-22T08:23:02.917Z,1.45
2022-11-22T08:25:34.731Z,1.46
2022-11-22T08:28:06.823Z,1.44
2022-11-22T08:30:38.672Z,1.39
2022-11-22T08:33:10.666Z,1.37
2022-11-22T08:35:43.601Z,1.40
2022-11-22T08:38:15.416Z,1.43
2022-11-22T08:40:50.954Z,1.54
2022-11-22T08:43:23.036Z,1.54
2022-11-22T08:46:00.529Z,1.48
2022-11-22T08:48:34.296Z,1.49
2022-11-22T08:51:08.254Z,1.55
2022-11-22T08:53:41.743Z,1.57
2022-11-22T08:56:16.562Z,1.57
2022-11-22T08:58:48.501Z,1.62
2022-11-22T09:01:23.457Z,1.66
2022-11-22T09:03:55.405Z,1.64
2022-11-22T09:09:36.829Z,1.70
2022-11-22T09:12:10.915Z,1.69
2022-11-22T09:14:43.281Z,1.73
2022-11-22T09:17:18.029Z,1.77
2022-11-22T09:19:51.676Z,1.74
2022-11-22T09:22:28.285Z,1.75
2022-11-22T09:25:01.864Z,1.84
2022-11-22T09:27:34.731Z,1.92
2022-11-22T09:30:08.903Z,1.95
2022-11-22T09:32:40.952Z,1.99
2022-11-22T09:35:13.030Z,2.06
2022-11-22T09:37:45.158Z,2.11
2022-11-22T09:40:17.919Z,2.17
2022-11-22T09:43:12.623Z,2.19
2022-11-22T09:45:59.087Z,2.25
2022-11-22T09:49:00.333Z,2.27
2022-11-22T09:51:38.289Z,2.23
2022-11-22T09:54:14.819Z,2.16
2022-11-22T09:56:48.713Z,2.13
2022-11-22T09:59:26.704Z,2.15
2022-11-22T10:02:17.731Z,2.22
2022-11-22T10:04:58.137Z,2.19
2022-11-22T10:07:35.207Z,2.17
2022-11-22T10:10:13.181Z,2.18
2022-11-22T10:12:51.205Z,2.24
2022-11-22T10:15:33.084Z,2.20
2022-11-22T10:18:12.749Z,2.15
2022-11-22T10:20:48.785Z,2.19
2022-11-22T10:23:23.979Z,2.18
2022-11-22T10:26:00.031Z,2.19
2022-11-22T10:28:37.468Z,2.18
2022-11-22T10:31:16.775Z,2.29
2022-11-22T10:34:00.272Z,2.35
2022-11-22T10:36:44.178Z,2.39
2022-11-22T10:39:41.916Z,2.41
2022-11-22T10:42:32.028Z,2.45
2022-11-22T10:45:11.410Z,2.47
2022-11-22T10:48:03.343Z,2.45
2022-11-22T10:50:47.125Z,2.47
2022-11-22T10:53:30.205Z,2.51
2022-11-22T10:56:09.979Z,2.53
2022-11-22T10:58:54.385Z,2.50
2022-11-22T11:01:37.129Z,2.50
2022-11-22T11:04:11.383Z,2.50
2022-11-22T11:07:10.906Z,2.55
2022-11-22T11:12:42.533Z,2.50
2022-11-22T11:15:22.043Z,2.48
2022-11-22T11:17:59.712Z,2.49
2022-11-22T11:20:42.295Z,2.54
2022-11-22T11:23:16.058Z,2.58
2022-11-22T11:25:52.417Z,2.56
2022-11-22T11:28:27.741Z,2.54
2022-11-22T11:31:07.842Z,2.59
2022-11-22T11:33:43.500Z,2.66
2022-11-22T11:36:19.960Z,2.56
2022-11-22T11:38:56.195Z,2.55
2022-11-22T11:41:31.228Z,2.55
2022-11-22T11:44:05.814Z,2.62
2022-11-22T11:46:49.238Z,2.66
2022-11-22T11:49:25.586Z,2.66
2022-11-22T11:52:03.099Z,2.69
2022-11-22T11:54:43.597Z,2.73
2022-11-22T11:57:21.667Z,2.69
2022-11-22T11:59:58.041Z,2.62
2022-11-22T12:02:36.463Z,2.57
2022-11-22T12:05:25.831Z,2.55
2022-11-22T12:07:57.932Z,2.54
2022-11-22T12:10:35.592Z,2.54
2022-11-22T12:13:17.842Z,2.58
2022-11-22T12:15:57.992Z,2.63
2022-11-22T12:18:40.081Z,2.70
2022-11-22T12:21:30.402Z,2.77
2022-11-22T12:24:48.444Z,2.83
2022-11-22T12:27:04.427Z,2.84
2022-11-22T12:29:39.293Z,2.85
2022-11-22T12:32:19.343Z,2.84
2022-11-22T12:34:58.308Z,2.88
2022-11-22T12:37:35.941Z,2.87
2022-11-22T12:40:17.979Z,2.83
2022-11-22T12:42:55.875Z,2.81
2022-11-22T12:45:32.220Z,2.75
2022-11-22T12:48:09.224Z,2.72
2022-11-22T12:50:46.050Z,2.72
2022-11-22T12:53:22.226Z,2.71
2022-11-22T12:56:03.319Z,2.71
2022-11-22T12:58:40.974Z,2.67
2022-11-22T13:01:21.748Z,2.68
2022-11-22T13:04:00.257Z,2.70
2022-11-22T13:06:42.587Z,2.76
2022-11-22T13:09:19.027Z,2.81
2022-11-22T13:11:56.745Z,2.82
2022-11-22T13:14:33.723Z,2.76
2022-11-22T13:17:10.858Z,2.80
2022-11-22T13:19:47.187Z,2.84
2022-11-22T13:22:33.009Z,2.86
2022-11-22T13:25:33.728Z,2.84
2022-11-22T13:28:15.184Z,2.78
2022-11-22T13:31:16.409Z,2.81
2022-11-22T13:33:59.052Z,2.85
2022-11-22T13:36:49.183Z,2.91
2022-11-22T13:39:26.263Z,2.91
2022-11-22T13:42:07.556Z,2.89
2022-11-22T13:45:20.561Z,2.96
2022-11-22T13:47:53.320Z,2.97
2022-11-22T13:51:03.169Z,2.96
2022-11-22T13:53:37.970Z,2.86
2022-11-22T13:56:49.724Z,2.89
2022-11-22T13:59:22.555Z,2.83
2022-11-22T14:02:22.593Z,2.84
2022-11-22T14:04:57.573Z,2.82
2022-11-22T14:07:40.556Z,2.80
2022-11-22T14:10:29.089Z,2.75
2022-11-22T14:13:21.384Z,2.79
2022-11-22T14:16:06.508Z,2.80
2022-11-22T14:18:53.154Z,2.83
2022-11-22T14:21:45.366Z,2.86
2022-11-22T14:27:31.735Z,2.77
2022-11-22T14:30:15.320Z,2.71
2022-11-22T14:33:04.318Z,2.66
2022-11-22T14:35:38.255Z,2.64
2022-11-22T14:38:34.250Z,2.65
2022-11-22T14:41:41.924Z,2.67
2022-11-22T14:44:18.512Z,2.63
2022-11-22T14:46:56.286Z,2.67
2022-11-22T14:49:44.197Z,2.71
2022-11-22T14:52:23.770Z,2.71
2022-11-22T14:54:59.904Z,2.70
2022-11-22T14:57:34.981Z,2.67
2022-11-22T15:00:19.237Z,2.69
2022-11-22T15:03:27.101Z,2.75
2022-11-22T15:09:18.219Z,2.73
2022-11-22T15:09:53.111Z,2.74
2022-11-22T15:12:41.657Z,2.73
2022-11-22T15:57:32.230Z,2.66
2022-11-22T16:00:10.329Z,2.64
2022-11-22T16:02:51.240Z,2.66
2022-11-22T16:06:08.283Z,2.71
2022-11-22T16:08:27.837Z,2.71
2022-11-22T16:11:05.855Z,2.75
2022-11-22T16:13:40.193Z,2.81
2022-11-22T16:16:26.842Z,2.85
2022-11-22T16:19:25.508Z,2.80
2022-11-22T16:22:02.314Z,2.74
2022-11-22T16:24:35.263Z,2.77
2022-11-22T16:27:16.213Z,2.82
2022-11-22T16:29:54.538Z,2.82
2022-11-22T16:32:29.601Z,2.81
2022-11-22T16:35:27.677Z,2.83
2022-11-22T16:37:54.733Z,2.80
2022-11-22T16:40:26.720Z,2.85
2022-11-22T16:42:58.853Z,2.86
2022-11-22T16:45:32.702Z,2.89
2022-11-22T16:48:30.741Z,2.95
2022-11-22T16:51:06.121Z,2.91
2022-11-22T16:53:58.783Z,2.85
2022-11-22T16:56:35.822Z,2.82
2022-11-22T16:59:12.635Z,2.84
2022-11-22T17:01:45.758Z,2.87
2022-11-22T17:04:24.365Z,2.84
2022-11-22T17:06:56.645Z,2.83
2022-11-22T17:09:28.993Z,2.84
2022-11-22T17:12:09.526Z,2.86
2022-11-22T17:14:41.838Z,2.86
2022-11-22T17:17:15.472Z,2.91
2022-11-22T17:19:55.150Z,2.96
2022-11-22T17:22:28.159Z,2.97
2022-11-22T17:25:00.756Z,2.96
2022-11-22T17:27:32.948Z,2.95
2022-11-22T17:30:05.750Z,2.97
2022-11-22T17:32:38.205Z,3.03
2022-11-22T17:35:13.198Z,3.00
2022-11-22T17:37:45.227Z,2.97
2022-11-22T17:40:20.369Z,2.95
2022-11-22T17:42:52.947Z,2.92
2022-11-22T17:45:26.598Z,2.89
2022-11-22T17:48:01.957Z,2.92
2022-11-22T17:50:41.025Z,2.90
2022-11-22T17:53:13.422Z,2.83
2022-11-22T17:56:09.635Z,2.85
2022-11-22T17:58:37.555Z,2.85
2022-11-22T18:01:12.556Z,2.91
2022-11-22T18:03:45.398Z,2.97
2022-11-22T18:06:18.590Z,2.94
2022-11-22T18:08:50.812Z,2.94
2022-11-22T18:11:22.986Z,2.89
2022-11-22T18:13:55.090Z,2.89
2022-11-22T18:16:29.025Z,2.92
2022-11-22T18:19:01.568Z,2.85
2022-11-22T18:21:34.188Z,2.86
2022-11-22T18:24:08.609Z,2.95
2022-11-22T18:26:41.569Z,2.95
2022-11-22T18:29:41.143Z,2.92
2022-11-22T18:32:07.539Z,2.84
2022-11-22T18:34:41.479Z,2.81
2022-11-22T18:37:14.072Z,2.87
2022-11-22T18:39:46.077Z,2.93
2022-11-22T18:42:18.461Z,2.96
2022-11-22T18:44:50.491Z,2.96
2022-11-22T18:47:22.438Z,2.96
2022-11-22T18:49:54.386Z,2.94
2022-11-22T18:52:27.191Z,2.84
2022-11-22T18:54:59.102Z,2.84
2022-11-22T18:57:31.035Z,2.89
2022-11-22T19:00:03.321Z,2.96
2022-11-22T19:02:36.600Z,2.99
2022-11-22T19:05:10.148Z,2.96
2022-11-22T19:07:43.396Z,2.94
2022-11-22T19:10:16.096Z,2.92
2022-11-22T19:12:48.461Z,2.88
2022-11-22T19:15:21.594Z,2.86
2022-11-22T19:17:53.534Z,2.88
2022-11-22T19:20:55.927Z,2.90
2022-11-22T19:23:22.680Z,2.90
2022-11-22T19:25:54.722Z,2.87
2022-11-22T19:28:29.669Z,2.85
2022-11-22T19:31:08.796Z,2.82
2022-11-22T19:33:42.318Z,2.79
2022-11-22T19:36:16.380Z,2.79
2022-11-22T19:38:49.290Z,2.81
2022-11-22T19:41:23.786Z,2.81
2022-11-22T19:43:56.690Z,2.82
2022-11-22T19:46:29.542Z,2.87
2022-11-22T19:49:02.494Z,2.88
2022-11-22T19:51:34.891Z,2.90
2022-11-22T19:54:08.164Z,2.90
2022-11-22T19:56:40.615Z,2.88
2022-11-22T19:59:16.069Z,2.82
2022-11-22T20:01:48.532Z,2.83
2022-11-22T20:04:20.601Z,2.86
2022-11-22T20:06:53.038Z,2.87
2022-11-22T20:09:25.890Z,2.82
2022-11-22T20:11:57.871Z,2.77
2022-11-22T20:14:30.457Z,2.78
2022-11-22T20:17:02.811Z,2.84
2022-11-22T20:19:37.185Z,2.86
2022-11-22T20:22:10.294Z,2.85
2022-11-22T20:24:42.223Z,2.83
2022-11-22T20:27:19.216Z,2.86
2022-11-22T20:29:55.586Z,2.90
2022-11-22T20:32:27.488Z,2.91
2022-11-22T20:34:59.567Z,2.92
2022-11-22T20:37:35.583Z,2.88
2022-11-22T20:40:12.230Z,2.84
2022-11-22T20:42:44.331Z,2.76
2022-11-22T20:45:16.502Z,2.78
2022-11-22T20:47:48.814Z,2.84
2022-11-22T20:50:20.967Z,2.85
2022-11-22T20:52:53.245Z,2.87
2022-11-22T20:55:25.151Z,2.89
2022-11-22T20:57:57.257Z,2.95
2022-11-22T21:00:29.578Z,2.95
2022-11-22T21:03:01.548Z,2.93
2022-11-22T21:05:33.488Z,2.91
2022-11-22T21:08:06.344Z,2.95
2022-11-22T21:10:38.433Z,2.93
2022-11-22T21:13:13.077Z,2.85
2022-11-22T21:15:45.533Z,2.87
2022-11-22T21:18:26.620Z,2.92
2022-11-22T21:21:04.263Z,2.98
2022-11-22T21:23:37.520Z,2.97
2022-11-22T21:26:12.961Z,2.96
2022-11-22T21:28:44.936Z,2.96
2022-11-22T21:31:17.070Z,2.96
2022-11-22T21:33:49.398Z,2.95
2022-11-22T21:36:22.240Z,2.94
2022-11-22T21:38:54.451Z,2.97
2022-11-22T21:41:41.967Z,2.99
2022-11-22T21:44:17.273Z,2.98
2022-11-22T21:46:49.695Z,2.98
2022-11-22T21:49:22.024Z,2.97
2022-11-22T21:51:55.284Z,2.97
2022-11-22T21:54:27.546Z,3.00
2022-11-22T21:57:02.814Z,2.98
2022-11-22T21:59:35.818Z,2.91
2022-11-22T22:02:08.421Z,2.89
2022-11-22T22:04:40.573Z,2.92
2022-11-22T22:07:29.788Z,2.95
2022-11-22T22:10:05.025Z,2.90
2022-11-22T22:12:37.173Z,2.87
2022-11-22T22:15:11.381Z,2.87
2022-11-22T22:17:43.506Z,2.87
2022-11-22T22:20:16.455Z,2.87
2022-11-22T22:22:48.781Z,2.91
2022-11-22T22:25:20.699Z,2.89
2022-11-22T22:27:52.921Z,2.86
2022-11-22T22:30:25.308Z,2.87
2022-11-22T22:33:00.655Z,2.86
2022-11-22T22:35:32.574Z,2.84
2022-11-22T22:38:04.487Z,2.84
2022-11-22T22:40:36.658Z,2.87
2022-11-22T22:43:08.555Z,2.88
2022-11-22T22:45:40.460Z,2.90
2022-11-22T22:48:12.343Z,2.88
2022-11-22T22:50:44.445Z,2.84
2022-11-22T22:53:18.786Z,2.81
2022-11-22T22:55:56.341Z,2.86
2022-11-22T22:59:00.052Z,2.84
2022-11-22T23:01:32.808Z,2.82
2022-11-22T23:04:05.442Z,2.82
2022-11-22T23:06:40.878Z,2.86
2022-11-22T23:09:15.833Z,2.91
2022-11-22T23:12:05.301Z,2.87
2022-11-22T23:14:39.649Z,2.82
2022-11-22T23:17:12.379Z,2.85
2022-11-22T23:19:44.347Z,2.93
2022-11-22T23:22:16.335Z,2.95
2022-11-22T23:24:48.243Z,2.98
2022-11-22T23:27:20.149Z,2.98
2022-11-22T23:29:52.031Z,3.02
2022-11-22T23:32:26.170Z,3.04
2022-11-22T23:34:58.781Z,3.03
2022-11-22T23:37:50.725Z,3.01
2022-11-22T23:40:22.625Z,3.03
2022-11-22T23:42:59.744Z,3.09
2022-11-22T23:45:32.249Z,3.10
2022-11-22T23:48:04.241Z,3.10
2022-11-22T23:50:37.632Z,3.12
2022-11-22T23:53:10.215Z,3.07
2022-11-22T23:55:42.134Z,3.09
2022-11-22T23:58:14.236Z,3.11
